シンガポール/チャンギ の空港の天気 - METARとTAF

シンガポール・チャンギ国際空港 ( WSSS / SIN ) - シンガポール Changi
飛行場実況気象(Metar)
観測時間08/18 10:30 SGT (08/18 02:30 UTC)
風向・風速東南東 5m/s
視程10km以上
天気現象
少しの雲 雲底高度 610m
全天の8割程度の雲 雲底高度 4880m
気温30℃
湿度75%
気圧1010hPa
METARWSSS 180230Z 11009KT 090V150 9999 FEW020 BKN160 30/25 Q1010 NOSIG
過去の天気等 Google飛行場航空写真 Wunderground天気予報

過去48時間のMETAR

飛行場予報(TAF)
発表時間: 8/18 07:00 SGT (8/17 23:00 UTC)
予報対象時間: 18日8時 SGT ~ 19日14時 SGT
風向・風速南南東 5m/s
視程10km以上
少しの積乱雲 雲底高度 550m
全天の4割程度の雲 雲底高度 610m
18日14時 SGT ~ 18日18時 SGT に一時的に
視程3,000m
天気現象雷雨
少しの積乱雲 雲底高度 370m
全天の8割程度の雲 雲底高度 460m
TAF WSSS 172300Z 1800/1906 16009KT 9999 FEW018CB SCT020
TEMPO 1806/1810 3000 TSRA FEW012CB BKN015